Time;durP1;ratioP1;P1;durP2;ratioP2;P2;SDS_P1;SDS_P2;PMS_P1;PMS_P2;Temp;Humidity;BMP_temperature;BMP_pressure;BME280_temperature;BME280_humidity;BME280_pressure;Samples;Min_cycle;Max_cycle;Signal;HPM_P1;HPM_P2
2022/04/01 00:02:23;;;;;;;5.20;2.50;;;0.90;99.90;;;;;;4894504;29;20396;-79
2022/04/01 00:04:50;;;;;;;5.40;2.50;;;0.50;99.90;;;;;;4879128;29;20071;-79
2022/04/01 00:07:16;;;;;;;6.88;3.05;;;1.00;99.90;;;;;;4894233;29;20505;-78
2022/04/01 00:09:42;;;;;;;6.10;2.50;;;0.40;99.90;;;;;;4894529;29;20387;-78
2022/04/01 00:12:09;;;;;;;5.40;2.63;;;0.40;99.90;;;;;;4904463;29;20045;-78
2022/04/01 00:14:35;;;;;;;6.05;2.45;;;0.40;99.90;;;;;;4878995;29;20060;-78
2022/04/01 00:17:01;;;;;;;4.68;2.30;;;0.40;99.90;;;;;;4893926;29;20057;-78
2022/04/01 00:19:27;;;;;;;4.30;2.30;;;0.40;99.90;;;;;;4894077;29;20059;-78
2022/04/01 00:21:53;;;;;;;5.60;2.40;;;0.40;99.90;;;;;;4902701;29;20082;-78
2022/04/01 00:24:19;;;;;;;;;;;0.30;99.90;;;;;;4882424;29;20147;-78
2022/04/01 00:26:45;;;;;;;7.75;2.72;;;0.30;99.90;;;;;;4912702;29;20014;-78
2022/04/01 00:29:15;;;;;;;6.38;2.80;;;0.30;99.90;;;;;;4912181;29;20064;-78
2022/04/01 00:31:59;;;;;;;5.13;2.42;;;0.90;99.90;;;;;;4912256;29;20051;-80
2022/04/01 00:34:26;;;;;;;4.70;2.30;;;0.40;99.90;;;;;;4912212;29;20447;-78
2022/04/01 00:36:53;;;;;;;4.60;2.50;;;0.40;99.90;;;;;;4912992;29;20051;-78
2022/04/01 00:39:20;;;;;;;6.85;3.08;;;0.30;99.90;;;;;;4893416;29;20471;-78
2022/04/01 00:41:47;;;;;;;5.05;2.38;;;0.30;99.90;;;;;;4878058;29;20053;-80
2022/04/01 00:44:16;;;;;;;4.50;2.15;;;0.30;99.90;;;;;;4878206;29;20052;-78
2022/04/01 00:46:50;;;;;;;4.25;2.45;;;0.80;99.90;;;;;;4910456;29;20482;-78
2022/04/01 00:49:16;;;;;;;5.55;2.25;;;1.10;99.90;;;;;;4893262;29;20067;-78
2022/04/01 00:51:44;;;;;;;5.18;2.42;;;0.50;99.90;;;;;;4880197;29;20104;-78
2022/04/01 00:54:10;;;;;;;11.95;2.90;;;0.30;99.90;;;;;;4877962;29;20049;-78
2022/04/01 00:56:37;;;;;;;5.35;2.05;;;0.30;99.90;;;;;;4899029;29;20120;-80
2022/04/01 00:59:03;;;;;;;8.05;2.38;;;0.30;99.90;;;;;;4892499;29;20056;-80
2022/04/01 01:01:34;;;;;;;4.25;2.28;;;0.40;99.90;;;;;;4893992;29;20503;-78
2022/04/01 01:04:04;;;;;;;7.07;2.40;;;0.40;99.90;;;;;;4893254;29;20060;-78
2022/04/01 01:06:31;;;;;;;7.13;2.00;;;0.30;99.90;;;;;;4894562;29;20056;-77
2022/04/01 01:08:57;;;;;;;3.45;1.90;;;0.30;99.90;;;;;;4905054;29;20127;-79
2022/04/01 01:11:25;;;;;;;5.97;2.00;;;1.10;99.90;;;;;;4912788;29;20044;-77
2022/04/01 01:13:52;;;;;;;5.25;1.88;;;0.30;99.90;;;;;;4912205;29;20617;-77
2022/04/01 01:16:19;;;;;;;4.28;2.33;;;0.30;99.90;;;;;;4912766;29;20127;-78
2022/04/01 01:18:46;;;;;;;4.38;1.80;;;0.20;99.90;;;;;;4897322;29;20056;-78
2022/04/01 01:21:11;;;;;;;5.13;2.20;;;0.20;99.90;;;;;;4896738;29;20052;-77
2022/04/01 01:23:38;;;;;;;4.60;2.10;;;0.20;99.90;;;;;;4913009;29;20107;-77
2022/04/01 01:26:04;;;;;;;7.38;2.10;;;1.10;99.90;;;;;;4896596;29;20086;-78
2022/04/01 01:28:30;;;;;;;6.53;1.92;;;0.10;99.90;;;;;;4911942;29;20056;-77
2022/04/01 01:30:55;;;;;;;6.85;2.00;;;1.20;99.90;;;;;;4912917;29;20052;-77
2022/04/01 01:33:25;;;;;;;4.30;2.03;;;0.60;99.90;;;;;;4894023;29;20060;-77
2022/04/01 01:35:51;;;;;;;5.18;2.05;;;0.50;99.90;;;;;;4893519;29;20059;-78
2022/04/01 01:38:18;;;;;;;3.60;1.85;;;0.20;99.90;;;;;;4892937;29;20499;-77
2022/04/01 01:40:45;;;;;;;3.83;2.03;;;0.10;99.90;;;;;;4893410;29;20052;-77
2022/04/01 01:43:10;;;;;;;4.18;1.92;;;0.20;99.90;;;;;;4868665;29;20596;-77
2022/04/01 01:45:36;;;;;;;4.47;2.45;;;0.20;99.90;;;;;;4916232;29;20056;-77
2022/04/01 01:48:02;;;;;;;7.25;2.08;;;0.10;99.90;;;;;;4899713;29;20064;-77
2022/04/01 01:55:56;;;;;;;5.88;2.00;;;1.30;99.90;;;;;;4896751;29;20406;-78
2022/04/01 01:58:22;;;;;;;4.72;1.70;;;0.20;99.90;;;;;;4888623;29;20064;-77
2022/04/01 02:00:48;;;;;;;4.25;1.92;;;0.30;99.90;;;;;;4915371;29;20052;-78
2022/04/01 02:03:14;;;;;;;4.63;2.25;;;0.20;99.90;;;;;;4914835;29;20055;-77
2022/04/01 02:05:40;;;;;;;4.13;2.08;;;0.20;99.90;;;;;;4903113;29;20095;-77
2022/04/01 02:08:06;;;;;;;5.95;2.63;;;0.30;99.90;;;;;;4895777;29;20088;-77
2022/04/01 02:10:32;;;;;;;8.48;2.50;;;0.30;99.90;;;;;;4880694;29;20113;-78
2022/04/01 02:12:58;;;;;;;6.78;2.40;;;0.50;99.90;;;;;;4895230;29;20114;-78
2022/04/01 02:15:24;;;;;;;4.32;2.05;;;0.30;99.90;;;;;;4880513;29;20056;-77
2022/04/01 02:17:50;;;;;;;4.25;2.30;;;0.30;99.90;;;;;;4902639;29;20120;-77
2022/04/01 02:20:16;;;;;;;5.03;2.33;;;0.30;99.90;;;;;;4898494;29;20051;-77
2022/04/01 02:22:43;;;;;;;4.90;2.35;;;0.30;99.90;;;;;;4899328;29;20055;-77
2022/04/01 02:25:11;;;;;;;6.78;2.30;;;0.20;99.90;;;;;;4899247;29;20063;-78
2022/04/01 02:27:38;;;;;;;3.92;1.95;;;0.90;99.90;;;;;;4910766;29;20048;-78
2022/04/01 02:30:10;;;;;;;4.38;2.30;;;0.30;99.90;;;;;;4895828;29;20048;-82
2022/04/01 02:32:45;;;;;;;5.75;2.10;;;0.30;99.90;;;;;;4908588;29;20119;-77
2022/04/01 02:35:11;;;;;;;4.10;1.95;;;0.30;99.90;;;;;;4914075;29;20143;-77
2022/04/01 02:37:37;;;;;;;4.57;2.28;;;0.30;99.90;;;;;;4898982;29;20131;-77
2022/04/01 02:40:04;;;;;;;5.05;2.35;;;0.30;99.90;;;;;;4895138;29;20056;-81
2022/04/01 02:42:30;;;;;;;2.72;1.90;;;0.30;99.90;;;;;;4879013;29;20056;-77
2022/04/01 02:44:56;;;;;;;8.88;1.90;;;0.30;99.90;;;;;;4914795;29;20048;-77
2022/04/01 02:47:22;;;;;;;2.83;1.67;;;0.30;99.90;;;;;;4898844;29;20051;-77
2022/04/01 02:49:48;;;;;;;6.60;2.22;;;1.00;99.90;;;;;;4913801;29;20150;-77
2022/04/01 02:52:13;;;;;;;3.35;1.92;;;0.30;99.90;;;;;;4914115;29;20455;-77
2022/04/01 02:54:39;;;;;;;5.63;2.13;;;0.30;99.90;;;;;;4898175;29;20052;-77
2022/04/01 02:57:05;;;;;;;4.28;1.73;;;0.30;99.90;;;;;;4897475;29;20056;-81
2022/04/01 02:59:31;;;;;;;2.22;1.30;;;0.30;99.90;;;;;;4896721;29;20549;-77
2022/04/01 03:01:56;;;;;;;6.18;2.05;;;0.30;99.90;;;;;;4895875;29;20088;-77
2022/04/01 03:04:22;;;;;;;2.35;1.70;;;1.40;99.90;;;;;;4894751;29;20057;-77
2022/04/01 03:06:49;;;;;;;5.68;1.85;;;0.30;99.90;;;;;;4900796;29;20059;-78
2022/04/01 03:09:14;;;;;;;;;;;0.30;99.90;;;;;;4914044;29;20127;-78
2022/04/01 03:11:41;;;;;;;4.00;1.83;;;1.40;99.90;;;;;;4897946;29;19923;-79
2022/04/01 03:14:08;;;;;;;4.65;1.70;;;0.20;99.90;;;;;;4913513;29;20536;-82
2022/04/01 03:16:35;;;;;;;7.15;2.03;;;0.20;99.90;;;;;;4914530;29;20486;-78
2022/04/01 03:19:03;;;;;;;3.25;1.70;;;0.30;99.90;;;;;;4913820;29;20486;-78
2022/04/01 03:21:29;;;;;;;4.15;1.63;;;0.20;99.90;;;;;;4913052;29;20536;-78
2022/04/01 03:23:55;;;;;;;3.08;1.67;;;0.20;99.90;;;;;;4913775;29;20059;-79
2022/04/01 03:26:21;;;;;;;;;;;0.70;99.90;;;;;;4913095;29;20429;-78
2022/04/01 03:28:47;;;;;;;4.93;1.92;;;1.30;99.90;;;;;;4913134;29;20025;-78
2022/04/01 03:31:14;;;;;;;;;;;0.90;99.90;;;;;;4914150;29;20056;-78
2022/04/01 03:33:44;;;;;;;4.25;2.00;;;0.20;99.90;;;;;;4913628;29;19922;-78
2022/04/01 03:36:11;;;;;;;5.93;1.85;;;0.20;99.90;;;;;;4897837;29;20075;-83
2022/04/01 03:38:38;;;;;;;3.10;1.90;;;0.20;99.90;;;;;;4894677;29;20503;-79
2022/04/01 03:41:05;;;;;;;2.97;1.70;;;0.20;99.90;;;;;;4894337;29;20048;-78
2022/04/01 03:43:34;;;;;;;2.97;1.73;;;0.70;99.90;;;;;;4893413;29;20045;-78
2022/04/01 03:46:06;;;;;;;3.38;2.10;;;0.20;99.90;;;;;;4895031;29;20056;-78
2022/04/01 03:48:54;;;;;;;4.72;2.22;;;0.20;99.90;;;;;;4894190;29;20064;-77
2022/04/01 03:51:22;;;;;;;;;;;0.20;99.90;;;;;;4895273;29;20072;-78
2022/04/01 03:54:02;;;;;;;7.18;2.25;;;0.20;99.90;;;;;;4897849;29;19923;-78
2022/04/01 03:56:34;;;;;;;7.00;2.20;;;0.20;99.90;;;;;;4912999;29;20056;-78
2022/04/01 03:59:05;;;;;;;3.33;1.70;;;0.20;99.90;;;;;;4893766;29;20050;-78
2022/04/01 04:01:32;;;;;;;5.57;1.98;;;0.20;99.90;;;;;;4894310;29;20622;-78
2022/04/01 04:04:00;;;;;;;7.57;2.15;;;0.20;99.90;;;;;;4878545;29;20114;-78
2022/04/01 04:06:26;;;;;;;5.57;1.80;;;0.30;99.90;;;;;;4893769;29;20108;-78
2022/04/01 04:08:57;;;;;;;8.48;2.17;;;0.30;99.90;;;;;;4894470;29;20072;-78
2022/04/01 04:11:28;;;;;;;4.55;1.92;;;0.30;99.90;;;;;;4893573;29;20052;-78
2022/04/01 04:13:58;;;;;;;3.22;1.80;;;0.30;99.90;;;;;;4897870;29;20853;-78
2022/04/01 04:16:54;;;;;;;5.85;1.90;;;0.30;99.90;;;;;;4912766;29;20490;-78
2022/04/01 04:20:06;;;;;;;6.78;1.98;;;1.30;99.90;;;;;;4911426;29;20064;-77
2022/04/01 04:22:39;;;;;;;6.00;1.83;;;0.30;99.90;;;;;;4912433;29;20370;-77
2022/04/01 04:25:10;;;;;;;5.72;2.25;;;0.30;99.90;;;;;;4913199;29;20059;-78
2022/04/01 04:27:39;;;;;;;5.47;2.00;;;0.40;99.90;;;;;;4895611;29;20070;-78
2022/04/01 04:30:09;;;;;;;9.27;2.35;;;0.60;99.90;;;;;;4913207;29;20044;-78
2022/04/01 04:32:39;;;;;;;5.15;1.90;;;0.40;99.90;;;;;;4893776;29;20059;-78
2022/04/01 04:35:07;;;;;;;5.13;1.90;;;0.50;99.90;;;;;;4909408;29;20048;-80
2022/04/01 04:37:42;;;;;;;6.13;1.90;;;0.50;99.90;;;;;;4908979;29;20055;-78
2022/04/01 04:40:12;;;;;;;7.75;1.90;;;1.30;99.90;;;;;;4894174;29;20052;-78
2022/04/01 04:42:44;;;;;;;7.50;1.90;;;0.60;99.90;;;;;;4895010;29;20147;-79
2022/04/01 04:45:18;;;;;;;6.57;2.10;;;0.80;99.90;;;;;;4913213;29;20055;-75
2022/04/01 04:47:45;;;;;;;5.75;2.00;;;0.60;99.90;;;;;;4912832;29;20060;-75
2022/04/01 04:50:12;;;;;;;4.55;1.80;;;0.90;99.90;;;;;;4912402;29;20151;-75
2022/04/01 04:52:39;;;;;;;4.50;1.85;;;0.70;99.90;;;;;;4907825;29;20563;-75
2022/04/01 04:55:10;;;;;;;5.57;1.95;;;1.50;99.90;;;;;;4887288;29;20056;-75
2022/04/01 04:57:38;;;;;;;4.53;1.75;;;1.20;99.90;;;;;;4894880;29;20571;-76
2022/04/01 05:00:05;;;;;;;4.15;1.60;;;0.70;99.90;;;;;;4897081;29;20044;-76
2022/04/01 05:02:42;;;;;;;5.82;2.22;;;0.70;99.90;;;;;;4912374;29;20134;-75
2022/04/01 05:05:31;;;;;;;4.78;1.95;;;0.80;99.90;;;;;;4912363;29;20083;-76
2022/04/01 05:08:15;;;;;;;4.25;1.88;;;0.80;99.90;;;;;;4898171;29;20569;-76
2022/04/01 05:10:53;;;;;;;5.05;2.08;;;0.90;99.90;;;;;;4906553;29;20119;-76
2022/04/01 05:13:37;;;;;;;5.22;1.90;;;0.90;99.90;;;;;;4911111;29;20056;-79
2022/04/01 05:16:07;;;;;;;9.10;2.20;;;2.00;99.90;;;;;;4912732;29;20048;-75
2022/04/01 05:18:42;;;;;;;5.50;2.20;;;1.00;99.90;;;;;;4909449;29;20049;-75
2022/04/01 05:21:22;;;;;;;6.78;2.10;;;1.60;99.90;;;;;;4881729;29;20495;-75
2022/04/01 05:23:54;;;;;;;3.80;1.85;;;1.00;99.90;;;;;;4897271;29;20059;-76
2022/04/01 05:26:25;;;;;;;4.30;1.80;;;1.00;99.90;;;;;;4896931;29;20060;-80
2022/04/01 05:29:00;;;;;;;5.22;1.98;;;0.90;99.90;;;;;;4896876;29;20075;-76
2022/04/01 05:31:35;;;;;;;7.03;2.17;;;1.10;99.90;;;;;;4881035;29;20101;-76
2022/04/01 05:34:24;;;;;;;5.03;2.10;;;1.20;99.90;;;;;;4894481;29;20059;-75
2022/04/01 05:36:51;;;;;;;6.75;1.75;;;1.10;99.90;;;;;;4915549;29;20048;-75
2022/04/01 05:39:18;;;;;;;4.25;1.90;;;1.40;99.90;;;;;;4916868;29;20516;-75
2022/04/01 05:41:46;;;;;;;4.13;1.85;;;2.00;99.90;;;;;;4914484;29;20052;-75
2022/04/01 05:44:13;;;;;;;3.17;1.75;;;1.70;99.90;;;;;;4915691;29;20052;-75
2022/04/01 05:46:40;;;;;;;7.43;2.13;;;1.20;99.90;;;;;;4914751;29;20048;-76
2022/04/01 05:49:06;;;;;;;5.72;1.98;;;1.20;99.90;;;;;;4899991;29;20076;-75
2022/04/01 05:51:33;;;;;;;5.40;2.15;;;1.20;99.90;;;;;;4880804;29;20064;-75
2022/04/01 05:53:59;;;;;;;4.38;2.08;;;1.30;99.90;;;;;;4905172;29;20096;-74
2022/04/01 05:56:27;;;;;;;4.18;2.10;;;1.10;99.90;;;;;;4914391;29;20052;-79
2022/04/01 05:58:53;;;;;;;3.92;1.83;;;1.30;99.90;;;;;;4914330;29;20079;-75
2022/04/01 06:01:44;;;;;;;3.67;1.85;;;1.30;99.90;;;;;;4915450;29;20457;-76
2022/04/01 06:04:39;;;;;;;2.85;1.73;;;1.30;99.90;;;;;;4915198;29;20457;-75
2022/04/01 06:07:28;;;;;;;3.72;2.00;;;1.30;99.90;;;;;;4897583;29;20066;-77
2022/04/01 06:10:31;;;;;;;6.85;1.65;;;1.40;99.90;;;;;;4905859;29;20055;-76
2022/04/01 06:13:06;;;;;;;2.42;1.50;;;1.40;99.90;;;;;;4886938;29;20102;-76
2022/04/01 06:15:40;;;;;;;2.10;1.52;;;1.40;99.90;;;;;;4898980;29;20566;-76
2022/04/01 06:18:30;;;;;;;3.47;1.67;;;1.50;99.90;;;;;;4915576;29;20064;-76
2022/04/01 06:21:03;;;;;;;2.50;1.50;;;1.50;99.90;;;;;;4914593;29;20554;-76
2022/04/01 06:24:02;;;;;;;2.72;1.50;;;1.50;99.90;;;;;;4898793;29;20067;-78
2022/04/01 06:26:33;;;;;;;4.18;1.50;;;1.50;99.90;;;;;;4898577;29;20060;-77
2022/04/01 06:29:26;;;;;;;2.63;1.10;;;1.60;99.90;;;;;;4908716;29;20056;-76
2022/04/01 06:32:22;;;;;;;2.00;1.30;;;1.60;99.90;;;;;;4913133;29;20508;-76
2022/04/01 06:35:11;;;;;;;2.10;1.20;;;1.70;99.90;;;;;;4894534;29;20566;-76
2022/04/01 06:37:42;;;;;;;2.53;1.13;;;1.70;99.90;;;;;;4900269;29;20103;-76
2022/04/01 06:40:12;;;;;;;2.75;1.05;;;1.70;99.90;;;;;;4914719;29;20052;-77
2022/04/01 06:42:40;;;;;;;4.18;1.58;;;2.50;99.90;;;;;;4912853;29;20586;-77
2022/04/01 06:45:08;;;;;;;4.18;1.00;;;2.10;99.90;;;;;;4883654;29;20067;-77
2022/04/01 06:47:39;;;;;;;2.03;1.13;;;1.70;99.90;;;;;;4914449;29;20490;-77
2022/04/01 06:50:05;;;;;;;5.70;1.40;;;1.70;99.90;;;;;;4913372;29;20056;-77
2022/04/01 06:52:31;;;;;;;3.08;1.25;;;1.80;99.90;;;;;;4908016;29;20060;-77
2022/04/01 06:54:57;;;;;;;1.10;1.00;;;2.20;99.90;;;;;;4909011;29;20056;-75
2022/04/01 06:57:23;;;;;;;3.67;1.08;;;1.90;99.90;;;;;;4911918;29;20150;-77
2022/04/01 06:59:49;;;;;;;1.50;1.00;;;1.90;99.90;;;;;;4913601;29;20901;-76
2022/04/01 07:02:15;;;;;;;;;;;1.90;99.90;;;;;;4914834;29;20459;-77
2022/04/01 07:04:41;;;;;;;2.20;0.98;;;1.90;99.90;;;;;;4913454;29;19979;-77
2022/04/01 07:07:07;;;;;;;2.67;1.33;;;2.00;99.90;;;;;;4914227;29;20155;-77
2022/04/01 07:09:35;;;;;;;1.38;1.20;;;2.30;99.90;;;;;;4898264;29;20064;-77
2022/04/01 07:12:01;;;;;;;1.65;1.05;;;2.00;99.90;;;;;;4895074;29;21121;-76
2022/04/01 07:14:27;;;;;;;2.60;1.15;;;2.00;99.90;;;;;;4904539;29;20048;-76
2022/04/01 07:16:57;;;;;;;2.53;1.25;;;2.20;99.90;;;;;;4913786;29;20052;-77
2022/04/01 07:19:22;;;;;;;7.35;1.58;;;2.00;99.90;;;;;;4913647;29;20486;-76
2022/04/01 07:21:48;;;;;;;4.22;1.70;;;2.00;99.90;;;;;;4914597;29;20056;-76
2022/04/01 07:24:14;;;;;;;3.75;1.30;;;2.80;99.90;;;;;;4897940;29;20486;-76
2022/04/01 07:26:41;;;;;;;3.60;1.70;;;2.10;99.90;;;;;;4912136;29;20056;-78
2022/04/01 07:29:07;;;;;;;2.95;1.30;;;2.10;99.90;;;;;;4911209;29;20116;-77
2022/04/01 07:34:36;;;;;;;6.90;1.52;;;2.20;99.90;;;;;;4910837;29;20063;-77
2022/04/01 07:37:03;;;;;;;3.20;1.60;;;2.10;99.90;;;;;;4913285;29;20056;-77
2022/04/01 07:39:28;;;;;;;2.90;1.50;;;2.10;99.90;;;;;;4881761;29;20048;-78
2022/04/01 07:41:54;;;;;;;3.88;1.40;;;2.10;99.90;;;;;;4895496;29;20561;-78
2022/04/01 07:44:22;;;;;;;3.03;1.40;;;2.20;99.90;;;;;;4894033;29;20059;-78
2022/04/01 07:46:48;;;;;;;3.95;1.48;;;2.20;99.90;;;;;;4894372;29;20049;-76
2022/04/01 07:49:15;;;;;;;4.00;1.65;;;2.30;99.90;;;;;;4893350;29;20060;-76
2022/04/01 07:51:43;;;;;;;2.30;1.27;;;2.30;99.90;;;;;;4892940;29;20078;-76
2022/04/01 07:54:08;;;;;;;6.22;1.70;;;2.30;99.90;;;;;;4889880;29;20056;-76
2022/04/01 07:56:36;;;;;;;4.13;1.80;;;2.20;99.90;;;;;;4911199;29;20060;-79
2022/04/01 07:59:02;;;;;;;4.18;1.75;;;2.70;99.90;;;;;;4877258;29;20201;-76
2022/04/01 08:01:28;;;;;;;3.22;1.80;;;2.40;99.90;;;;;;4893544;29;20136;-76
2022/04/01 08:03:54;;;;;;;6.55;1.83;;;2.40;99.90;;;;;;4892745;29;20193;-77
2022/04/01 08:06:19;;;;;;;2.78;1.70;;;2.50;99.90;;;;;;4878189;29;20055;-76
2022/04/01 08:08:45;;;;;;;3.72;1.85;;;2.60;99.90;;;;;;4885286;29;20064;-76
2022/04/01 08:11:11;;;;;;;3.15;1.70;;;2.70;99.90;;;;;;4894795;29;20134;-77
2022/04/01 08:13:37;;;;;;;4.25;1.70;;;2.70;99.90;;;;;;4886440;29;20419;-80
2022/04/01 08:16:03;;;;;;;3.13;1.88;;;2.80;99.90;;;;;;4891472;29;20052;-76
2022/04/01 08:18:28;;;;;;;6.45;1.60;;;2.90;99.90;;;;;;4902816;29;20060;-77
2022/04/01 08:20:54;;;;;;;4.68;1.85;;;3.00;99.90;;;;;;4903858;29;20227;-76
2022/04/01 08:23:20;;;;;;;3.25;1.88;;;3.30;99.90;;;;;;4892304;29;20433;-76
2022/04/01 08:25:46;;;;;;;9.20;2.55;;;3.00;99.90;;;;;;4908097;29;20056;-76
2022/04/01 08:28:12;;;;;;;6.03;2.20;;;3.10;99.90;;;;;;4909971;29;20498;-75
2022/04/01 08:30:40;;;;;;;3.88;2.20;;;3.10;99.90;;;;;;4910562;29;20055;-80
2022/04/01 08:33:06;;;;;;;4.40;2.05;;;3.20;99.90;;;;;;4905941;29;20055;-77
2022/04/01 08:35:33;;;;;;;;;;;3.20;99.90;;;;;;4908738;29;20075;-76
2022/04/01 08:37:59;;;;;;;6.95;2.50;;;3.30;99.90;;;;;;4899845;29;20383;-76
2022/04/01 08:40:26;;;;;;;4.38;2.40;;;3.30;99.90;;;;;;4900605;29;20059;-76
2022/04/01 08:42:52;;;;;;;8.63;2.15;;;3.30;99.90;;;;;;4909512;29;20052;-76
2022/04/01 08:45:19;;;;;;;5.78;2.55;;;3.30;99.90;;;;;;4911179;29;20781;-76
2022/04/01 08:47:45;;;;;;;5.17;2.50;;;3.30;99.90;;;;;;4872324;29;1126838;-78
2022/04/01 08:50:11;;;;;;;5.93;2.80;;;3.80;99.90;;;;;;4911902;29;20610;-76
2022/04/01 08:52:38;;;;;;;8.80;2.63;;;3.20;99.90;;;;;;4896856;29;20048;-75
2022/04/01 08:55:10;;;;;;;5.50;2.55;;;3.20;99.90;;;;;;4900748;29;20491;-75
2022/04/01 08:57:41;;;;;;;4.53;2.40;;;3.10;99.90;;;;;;4900372;29;20138;-75
2022/04/01 09:00:16;;;;;;;7.20;3.08;;;3.00;99.90;;;;;;4907493;29;20104;-76
2022/04/01 09:02:45;;;;;;;8.65;3.40;;;2.90;99.90;;;;;;4897605;29;20508;-77
2022/04/01 09:05:12;;;;;;;7.05;3.08;;;2.80;99.90;;;;;;4897632;29;20064;-77
2022/04/01 09:07:38;;;;;;;8.98;2.70;;;2.70;99.90;;;;;;4904335;29;20049;-77
2022/04/01 09:10:08;;;;;;;8.45;2.97;;;2.90;99.90;;;;;;4911597;29;20046;-76
2022/04/01 09:12:35;;;;;;;6.65;3.00;;;2.90;99.90;;;;;;4914012;29;20051;-76
2022/04/01 09:15:03;;;;;;;7.93;3.35;;;2.70;99.90;;;;;;4911750;29;20058;-76
2022/04/01 09:17:42;;;;;;;8.02;3.20;;;2.70;99.90;;;;;;4904026;29;20059;-76
2022/04/01 09:20:09;;;;;;;9.35;3.70;;;2.50;99.90;;;;;;4897212;29;20405;-77
2022/04/01 09:22:39;;;;;;;8.13;3.55;;;2.60;99.90;;;;;;4897197;29;20127;-76
2022/04/01 09:25:14;;;;;;;8.32;3.67;;;2.70;99.90;;;;;;4897500;29;20216;-75
2022/04/01 09:27:46;;;;;;;8.48;3.78;;;2.60;99.90;;;;;;4897657;29;20053;-78
2022/04/01 09:30:24;;;;;;;8.23;3.78;;;3.00;99.90;;;;;;4897496;29;20079;-77
2022/04/01 09:32:55;;;;;;;6.65;3.70;;;3.20;99.90;;;;;;4897248;29;20052;-76
2022/04/01 09:35:24;;;;;;;8.70;4.00;;;3.60;99.90;;;;;;4905522;29;20517;-76
2022/04/01 09:37:55;;;;;;;9.27;4.20;;;3.30;99.90;;;;;;4915621;29;20055;-76
2022/04/01 09:40:22;;;;;;;8.10;3.92;;;3.70;99.90;;;;;;4916155;29;20130;-75
2022/04/01 09:42:50;;;;;;;6.25;3.45;;;3.40;99.90;;;;;;4898717;29;20067;-79
2022/04/01 09:45:18;;;;;;;8.70;3.72;;;3.80;99.90;;;;;;4896810;29;20063;-75
2022/04/01 09:47:45;;;;;;;6.50;3.42;;;3.40;99.90;;;;;;4897757;29;20088;-80
2022/04/01 09:50:17;;;;;;;11.48;4.20;;;3.40;99.90;;;;;;4889368;29;20060;-76
2022/04/01 09:52:42;;;;;;;8.23;3.95;;;3.40;99.90;;;;;;4905581;29;20056;-80
2022/04/01 09:55:09;;;;;;;8.73;4.47;;;3.30;99.90;;;;;;4909996;29;20417;-77
2022/04/01 09:57:35;;;;;;;9.52;4.28;;;3.50;99.90;;;;;;4890144;29;20120;-76
2022/04/01 10:00:02;;;;;;;6.05;3.38;;;3.60;99.90;;;;;;4911118;29;20084;-76
2022/04/01 10:02:29;;;;;;;12.30;4.18;;;3.60;99.90;;;;;;4913098;29;20092;-76
2022/04/01 10:04:55;;;;;;;8.73;4.03;;;3.60;99.90;;;;;;4900772;29;20049;-75
2022/04/01 10:07:24;;;;;;;7.97;3.70;;;4.20;99.90;;;;;;4873115;29;20171;-76
2022/04/01 10:09:53;;;;;;;8.13;3.60;;;4.50;99.90;;;;;;4907986;29;20120;-75
2022/04/01 10:12:23;;;;;;;8.32;3.85;;;3.80;99.90;;;;;;4896761;29;20058;-76
2022/04/01 10:14:54;;;;;;;7.93;4.00;;;3.90;99.90;;;;;;4891614;29;20108;-76
2022/04/01 10:17:21;;;;;;;7.93;4.25;;;3.90;99.90;;;;;;4897850;29;20059;-77
2022/04/01 10:19:49;;;;;;;8.38;4.13;;;4.10;99.90;;;;;;4909889;29;20049;-79
2022/04/01 10:22:16;;;;;;;7.97;3.78;;;4.90;99.90;;;;;;4897333;29;20150;-76
2022/04/01 10:25:04;;;;;;;8.45;4.10;;;4.70;99.90;;;;;;4903943;29;20108;-76
2022/04/01 10:27:40;;;;;;;;;;;4.20;99.90;;;;;;4887171;29;20068;-77
2022/04/01 10:30:13;;;;;;;8.00;4.00;;;4.20;99.90;;;;;;4910193;29;20506;-76
2022/04/01 10:32:46;;;;;;;8.20;4.35;;;4.00;99.90;;;;;;4913418;29;20088;-76
2022/04/01 10:35:29;;;;;;;7.57;4.28;;;3.90;99.90;;;;;;4892447;29;20142;-78
2022/04/01 10:38:15;;;;;;;8.95;4.13;;;3.90;99.90;;;;;;4896384;29;20107;-78
2022/04/01 10:40:43;;;;;;;9.20;4.07;;;4.00;99.90;;;;;;4900157;29;20040;-78
2022/04/01 10:43:29;;;;;;;7.90;3.80;;;3.90;99.90;;;;;;4892841;29;20063;-77
2022/04/01 10:46:13;;;;;;;8.10;4.40;;;3.90;99.90;;;;;;4894618;29;20056;-78
2022/04/01 10:52:04;;;;;;;8.40;4.43;;;3.60;99.90;;;;;;4894695;29;20041;-77
2022/04/01 10:54:30;;;;;;;9.50;3.97;;;3.60;99.90;;;;;;4896813;29;20573;-78
2022/04/01 10:57:08;;;;;;;5.85;2.80;;;3.60;99.90;;;;;;4893399;29;20052;-77
2022/04/01 10:59:45;;;;;;;10.75;3.50;;;3.90;99.90;;;;;;4899613;29;20060;-77
2022/04/01 11:02:15;;;;;;;8.57;3.78;;;3.70;99.90;;;;;;4899204;29;20060;-79
2022/04/01 11:04:44;;;;;;;5.35;3.10;;;3.80;99.90;;;;;;4894554;29;20052;-78
2022/04/01 11:07:22;;;;;;;6.20;2.97;;;3.50;99.90;;;;;;4900135;29;20052;-77
2022/04/01 11:09:52;;;;;;;9.13;3.22;;;4.00;99.90;;;;;;4900066;29;20518;-81
2022/04/01 11:12:19;;;;;;;7.88;2.88;;;4.00;99.90;;;;;;4893075;29;20147;-79
2022/04/01 11:14:56;;;;;;;6.03;2.75;;;4.00;99.90;;;;;;4894758;29;20403;-77
2022/04/01 11:17:23;;;;;;;6.93;2.70;;;3.90;99.90;;;;;;4897053;29;20752;-77
2022/04/01 11:20:13;;;;;;;6.97;3.03;;;3.70;99.90;;;;;;4900447;29;20135;-82
2022/04/01 11:23:04;;;;;;;5.28;2.47;;;3.80;99.90;;;;;;4914228;29;20044;-77
2022/04/01 11:25:32;;;;;;;4.18;2.25;;;4.20;99.90;;;;;;4909742;29;20052;-77
2022/04/01 11:28:11;;;;;;;4.85;2.20;;;3.90;99.90;;;;;;4912722;29;20063;-78
2022/04/01 11:30:54;;;;;;;4.40;2.35;;;3.60;99.90;;;;;;4898892;29;20056;-77
2022/04/01 11:33:21;;;;;;;7.05;2.63;;;3.50;99.90;;;;;;4898090;29;20048;-77
2022/04/01 11:35:51;;;;;;;5.07;2.55;;;3.50;99.90;;;;;;4898030;29;20154;-78
2022/04/01 11:38:22;;;;;;;4.15;2.05;;;3.50;99.90;;;;;;4905450;29;20053;-77
2022/04/01 11:40:55;;;;;;;5.50;2.90;;;3.50;99.90;;;;;;4895171;29;20041;-78
2022/04/01 11:43:22;;;;;;;5.93;2.40;;;4.00;99.90;;;;;;4893950;29;20063;-76
2022/04/01 11:45:54;;;;;;;4.82;2.35;;;3.60;99.90;;;;;;4880104;29;20057;-78
2022/04/01 11:48:26;;;;;;;4.63;2.08;;;4.30;99.90;;;;;;4897174;29;20142;-77
2022/04/01 11:50:57;;;;;;;7.80;2.50;;;3.70;99.90;;;;;;4910642;29;20062;-81
2022/04/01 11:53:31;;;;;;;3.45;1.80;;;3.90;99.90;;;;;;4912407;29;20130;-79
2022/04/01 11:55:59;;;;;;;4.43;2.17;;;3.80;99.90;;;;;;4912531;29;20055;-77
2022/04/01 11:58:27;;;;;;;3.20;2.10;;;3.70;99.90;;;;;;4885540;29;20052;-77
2022/04/01 12:00:53;;;;;;;6.18;2.45;;;3.80;99.90;;;;;;4909550;29;20051;-81
2022/04/01 12:03:19;;;;;;;5.32;2.17;;;3.90;99.90;;;;;;4910072;29;20127;-77
2022/04/01 12:05:45;;;;;;;;;;;4.40;99.90;;;;;;4901871;29;20044;-77
2022/04/01 12:11:00;;;;;;;4.13;2.45;;;4.00;99.90;;;;;;4911101;29;20056;-78
2022/04/01 12:13:30;;;;;;;5.28;2.15;;;4.00;99.90;;;;;;4906644;29;20568;-78
2022/04/01 12:15:58;;;;;;;5.25;2.00;;;4.10;99.90;;;;;;4880486;29;20096;-77
2022/04/01 12:18:29;;;;;;;3.47;2.00;;;4.20;99.90;;;;;;4883103;29;20060;-80
2022/04/01 12:20:57;;;;;;;5.05;1.85;;;4.10;99.90;;;;;;4893453;29;20053;-80
2022/04/01 12:23:26;;;;;;;4.72;2.30;;;4.10;99.90;;;;;;4873058;29;20041;-77
2022/04/01 12:25:54;;;;;;;4.60;2.08;;;4.50;99.90;;;;;;4900769;29;20068;-82
2022/04/01 12:28:24;;;;;;;3.90;1.85;;;4.20;99.90;;;;;;4890506;29;20093;-78
2022/04/01 12:30:51;;;;;;;4.13;1.90;;;4.30;99.90;;;;;;4903781;29;20063;-77
2022/04/01 12:33:28;;;;;;;10.63;2.20;;;4.30;99.90;;;;;;4896701;29;20099;-77
2022/04/01 12:36:09;;;;;;;4.45;1.73;;;4.20;99.90;;;;;;4912879;29;20512;-81
2022/04/01 12:38:40;;;;;;;3.45;1.88;;;4.10;99.90;;;;;;4913317;29;20051;-78
2022/04/01 12:41:17;;;;;;;4.45;2.20;;;4.00;99.90;;;;;;4908502;29;20045;-77
2022/04/01 12:43:48;;;;;;;3.40;1.70;;;4.00;99.90;;;;;;4905641;29;20701;-77
2022/04/01 12:46:18;;;;;;;5.05;2.10;;;4.10;99.90;;;;;;4878560;29;20177;-76
2022/04/01 12:48:47;;;;;;;4.28;1.90;;;4.10;99.90;;;;;;4902752;29;20056;-77
2022/04/01 12:51:20;;;;;;;6.65;1.90;;;4.20;99.90;;;;;;4895676;29;20056;-76
2022/04/01 12:54:28;;;;;;;3.10;1.63;;;4.30;99.90;;;;;;4912839;29;20056;-76
2022/04/01 12:56:55;;;;;;;4.38;1.80;;;4.30;99.90;;;;;;4868913;29;20103;-79
2022/04/01 12:59:22;;;;;;;8.05;2.28;;;4.20;99.90;;;;;;4912563;29;20513;-76
2022/04/01 13:02:06;;;;;;;4.10;1.98;;;4.80;99.90;;;;;;4897722;29;20138;-76
2022/04/01 13:04:47;;;;;;;2.45;1.40;;;4.30;99.90;;;;;;4884066;29;20096;-76
2022/04/01 13:07:27;;;;;;;3.95;1.75;;;4.40;99.90;;;;;;4912457;29;20056;-77
2022/04/01 13:09:55;;;;;;;4.68;1.70;;;4.40;99.90;;;;;;4913171;29;20391;-76
2022/04/01 13:12:28;;;;;;;3.53;1.88;;;4.40;99.90;;;;;;4911180;29;20059;-76
2022/04/01 13:15:02;;;;;;;2.50;1.70;;;4.40;99.90;;;;;;4878913;29;20057;-76
2022/04/01 13:17:29;;;;;;;3.70;1.60;;;4.30;99.90;;;;;;4894372;29;20483;-76
2022/04/01 13:19:55;;;;;;;4.20;1.95;;;4.40;99.90;;;;;;4878270;29;20172;-76
2022/04/01 13:22:20;;;;;;;2.83;1.77;;;4.30;99.90;;;;;;4879068;29;20488;-76
2022/04/01 13:24:48;;;;;;;2.63;1.55;;;4.40;99.90;;;;;;4913002;29;20055;-76
2022/04/01 13:27:16;;;;;;;2.33;1.42;;;4.30;99.90;;;;;;4911270;29;20048;-77
2022/04/01 13:29:43;;;;;;;3.50;1.48;;;4.30;99.90;;;;;;4894178;29;20060;-76
2022/04/01 13:32:10;;;;;;;6.00;1.58;;;4.30;99.90;;;;;;4879213;29;20056;-77